Time;durP1;ratioP1;P1;durP2;ratioP2;P2;SDS_P1;SDS_P2;PMS_P1;PMS_P2;Temp;Humidity;BMP_temperature;BMP_pressure;BME280_temperature;BME280_humidity;BME280_pressure;Samples;Min_cycle;Max_cycle;Signal;HPM_P1;HPM_P2
2023/09/19 00:02:06;;;;;;;0.15;0.15;;;15.00;83.40;;;;;;4962997;28;20039;-65
2023/09/19 00:04:34;;;;;;;0.00;0.00;;;15.10;83.10;;;;;;4962053;28;20047;-65
2023/09/19 00:07:02;;;;;;;2.00;1.65;;;15.10;83.20;;;;;;4963775;28;20137;-65
2023/09/19 00:09:28;;;;;;;0.00;0.00;;;15.00;83.10;;;;;;4962559;28;20047;-65
2023/09/19 00:11:53;;;;;;;0.00;0.00;;;15.10;83.00;;;;;;4960365;28;20514;-65
2023/09/19 00:14:19;;;;;;;0.00;0.00;;;15.00;81.50;;;;;;4958184;28;20054;-64
2023/09/19 00:16:46;;;;;;;0.00;0.00;;;15.10;81.90;;;;;;4954600;28;20190;-65
2023/09/19 00:19:16;;;;;;;0.00;0.00;;;15.00;81.10;;;;;;4967509;28;20062;-65
2023/09/19 00:21:41;;;;;;;0.00;0.00;;;15.00;80.30;;;;;;4960214;28;20046;-65
2023/09/19 00:24:09;;;;;;;0.00;0.00;;;15.00;80.30;;;;;;4966666;28;20166;-64
2023/09/19 00:26:35;;;;;;;0.40;0.40;;;15.00;80.10;;;;;;4955108;28;20035;-65
2023/09/19 00:29:04;;;;;;;0.00;0.00;;;14.90;80.20;;;;;;4957611;28;20042;-64
2023/09/19 00:31:29;;;;;;;0.00;0.00;;;14.90;79.10;;;;;;4953764;28;20035;-64
2023/09/19 00:33:59;;;;;;;0.00;0.00;;;14.90;78.40;;;;;;4955579;28;20039;-64
2023/09/19 00:36:25;;;;;;;0.00;0.00;;;14.90;78.90;;;;;;4958247;28;20108;-64
2023/09/19 00:38:51;;;;;;;0.00;0.00;;;14.90;78.80;;;;;;4967717;28;20050;-65
2023/09/19 00:41:17;;;;;;;0.00;0.00;;;14.80;78.70;;;;;;4967586;28;20046;-65
2023/09/19 00:43:42;;;;;;;0.10;0.10;;;14.80;78.90;;;;;;4958590;28;20054;-65
2023/09/19 00:46:08;;;;;;;0.00;0.00;;;14.70;78.50;;;;;;4950425;28;20051;-64
2023/09/19 00:48:43;;;;;;;0.00;0.00;;;14.70;78.70;;;;;;4951953;28;20046;-64
2023/09/19 00:51:09;;;;;;;0.00;0.00;;;14.60;78.40;;;;;;4964938;28;20046;-64
2023/09/19 00:53:34;;;;;;;0.00;0.00;;;14.60;78.70;;;;;;4959335;28;20037;-64
2023/09/19 00:56:02;;;;;;;0.00;0.00;;;14.60;78.60;;;;;;4956942;28;20493;-65
2023/09/19 00:58:33;;;;;;;0.00;0.00;;;14.60;78.60;;;;;;4956247;28;20745;-65
2023/09/19 01:00:59;;;;;;;0.00;0.00;;;14.60;78.40;;;;;;4961774;28;20043;-64
2023/09/19 01:03:24;;;;;;;6.97;1.35;;;14.60;78.50;;;;;;4964329;28;20039;-64
2023/09/19 01:05:50;;;;;;;0.00;0.00;;;14.60;78.10;;;;;;4953566;28;20055;-64
2023/09/19 01:08:16;;;;;;;0.00;0.00;;;14.60;78.70;;;;;;4960441;28;20042;-65
2023/09/19 01:11:00;;;;;;;0.13;0.13;;;14.60;79.10;;;;;;4969805;28;20035;-63
2023/09/19 01:13:45;;;;;;;0.00;0.00;;;14.50;78.60;;;;;;4971698;28;20559;-64
2023/09/19 01:16:39;;;;;;;0.00;0.00;;;14.60;78.70;;;;;;4958558;28;20058;-65
2023/09/19 01:19:35;;;;;;;0.25;0.25;;;14.50;78.60;;;;;;4971694;28;20051;-64
2023/09/19 01:22:21;;;;;;;0.00;0.00;;;14.50;78.40;;;;;;4956092;28;20050;-64
2023/09/19 01:25:17;;;;;;;2.30;1.05;;;14.60;78.70;;;;;;4953323;28;20062;-65
2023/09/19 01:28:23;;;;;;;0.00;0.00;;;14.60;78.10;;;;;;4959884;28;20050;-65
2023/09/19 01:30:57;;;;;;;0.28;0.28;;;14.60;78.10;;;;;;4953434;28;20094;-64
2023/09/19 01:33:23;;;;;;;0.13;0.13;;;14.60;77.90;;;;;;4959773;28;21497;-64
2023/09/19 01:35:50;;;;;;;0.00;0.00;;;14.60;78.30;;;;;;4971936;28;20053;-64
2023/09/19 01:38:16;;;;;;;0.00;0.00;;;14.60;77.90;;;;;;4971724;28;20043;-64
2023/09/19 01:40:44;;;;;;;0.00;0.00;;;14.60;77.70;;;;;;4971580;28;20448;-64
2023/09/19 01:43:21;;;;;;;0.00;0.00;;;14.60;78.10;;;;;;4971713;28;20404;-64
2023/09/19 01:46:14;;;;;;;0.00;0.00;;;14.60;78.20;;;;;;4971721;28;20114;-65
2023/09/19 01:49:03;;;;;;;0.00;0.00;;;14.60;78.40;;;;;;4971640;28;20042;-64
2023/09/19 01:51:51;;;;;;;0.20;0.20;;;14.70;78.70;;;;;;4969488;28;20051;-65
2023/09/19 01:54:26;;;;;;;0.00;0.00;;;14.60;78.20;;;;;;4970545;28;20031;-65
2023/09/19 01:57:21;;;;;;;0.00;0.00;;;14.60;78.30;;;;;;4968997;28;20077;-64
2023/09/19 01:59:54;;;;;;;0.00;0.00;;;14.70;77.90;;;;;;4970816;28;20089;-65
2023/09/19 02:02:22;;;;;;;0.22;0.22;;;14.60;78.20;;;;;;4971434;28;20089;-65
2023/09/19 02:04:48;;;;;;;0.00;0.00;;;14.60;78.60;;;;;;4971460;28;20087;-65
2023/09/19 02:07:15;;;;;;;0.00;0.00;;;14.60;78.50;;;;;;4971060;28;20074;-65
2023/09/19 02:09:42;;;;;;;0.00;0.00;;;14.70;78.10;;;;;;4971175;28;20046;-64
2023/09/19 02:12:09;;;;;;;0.00;0.00;;;14.70;78.40;;;;;;4971551;28;20113;-64
2023/09/19 02:14:36;;;;;;;0.00;0.00;;;14.60;77.70;;;;;;4968942;28;20035;-65
2023/09/19 02:17:05;;;;;;;0.00;0.00;;;14.70;77.70;;;;;;4971088;28;20053;-64
2023/09/19 02:19:32;;;;;;;0.00;0.00;;;14.60;77.50;;;;;;4969999;28;20085;-64
2023/09/19 02:21:58;;;;;;;0.00;0.00;;;14.60;77.90;;;;;;4965938;28;20832;-64
2023/09/19 02:24:24;;;;;;;0.03;0.03;;;14.60;77.50;;;;;;4971266;28;20043;-64
2023/09/19 02:26:49;;;;;;;0.20;0.20;;;14.70;77.60;;;;;;4971245;28;20046;-65
2023/09/19 02:29:15;;;;;;;0.38;0.30;;;14.60;77.80;;;;;;4970824;28;20166;-64
2023/09/19 02:31:41;;;;;;;0.00;0.00;;;14.70;78.00;;;;;;4971164;28;20162;-65
2023/09/19 02:34:06;;;;;;;2.05;1.35;;;14.80;77.40;;;;;;4970743;28;20047;-64
2023/09/19 02:36:32;;;;;;;0.00;0.00;;;14.80;77.50;;;;;;4970789;28;20046;-64
2023/09/19 02:38:57;;;;;;;0.00;0.00;;;14.80;77.00;;;;;;4966589;28;20051;-64
2023/09/19 02:41:23;;;;;;;0.00;0.00;;;14.80;77.20;;;;;;4970729;28;20096;-64
2023/09/19 02:43:48;;;;;;;0.00;0.00;;;14.70;76.90;;;;;;4970640;28;20051;-64
2023/09/19 02:46:14;;;;;;;0.00;0.00;;;14.80;77.40;;;;;;4970548;28;20129;-64
2023/09/19 02:48:40;;;;;;;0.00;0.00;;;14.70;77.80;;;;;;4970484;28;20047;-64
2023/09/19 02:51:05;;;;;;;0.00;0.00;;;14.70;77.80;;;;;;4970273;28;20039;-64
2023/09/19 02:53:31;;;;;;;0.00;0.00;;;14.60;78.00;;;;;;4970939;28;20051;-64
2023/09/19 02:55:57;;;;;;;0.00;0.00;;;14.60;78.20;;;;;;4969944;28;20050;-64
2023/09/19 02:58:24;;;;;;;0.00;0.00;;;14.60;78.40;;;;;;4970670;28;20101;-64
2023/09/19 03:00:51;;;;;;;0.00;0.00;;;14.60;78.10;;;;;;4953259;28;20495;-64
2023/09/19 03:03:17;;;;;;;0.00;0.00;;;14.60;78.10;;;;;;4970473;28;20035;-64
2023/09/19 03:05:46;;;;;;;0.00;0.00;;;14.60;77.70;;;;;;4970015;28;20416;-64
2023/09/19 03:08:14;;;;;;;0.00;0.00;;;14.60;77.20;;;;;;4970113;28;20488;-64
2023/09/19 03:10:40;;;;;;;0.80;0.75;;;14.60;76.90;;;;;;4963807;28;20058;-64
2023/09/19 03:13:09;;;;;;;0.00;0.00;;;14.60;76.90;;;;;;4970599;28;20484;-64
2023/09/19 03:15:38;;;;;;;0.20;0.20;;;14.60;76.80;;;;;;4970120;28;20055;-64
2023/09/19 03:18:04;;;;;;;0.00;0.00;;;14.70;76.20;;;;;;4969748;28;20100;-64
2023/09/19 03:20:30;;;;;;;0.00;0.00;;;14.60;76.20;;;;;;4970562;28;20046;-64
2023/09/19 03:22:57;;;;;;;0.00;0.00;;;14.60;76.00;;;;;;4970191;28;20043;-64
2023/09/19 03:25:23;;;;;;;0.00;0.00;;;14.60;75.40;;;;;;4969856;28;20047;-64
2023/09/19 03:27:48;;;;;;;0.30;0.30;;;14.60;75.90;;;;;;4966901;28;20042;-64
2023/09/19 03:30:14;;;;;;;0.00;0.00;;;14.60;76.40;;;;;;4970083;28;20058;-65
2023/09/19 03:32:47;;;;;;;0.00;0.00;;;14.50;76.10;;;;;;4969999;28;20047;-64
2023/09/19 03:35:14;;;;;;;2.15;1.30;;;14.60;76.50;;;;;;4968707;28;20045;-64
2023/09/19 03:37:41;;;;;;;0.55;0.45;;;14.60;76.50;;;;;;4969600;28;20043;-64
2023/09/19 03:40:07;;;;;;;1.50;1.40;;;14.60;76.90;;;;;;4969395;28;20050;-64
2023/09/19 03:42:35;;;;;;;0.00;0.00;;;14.60;77.60;;;;;;4969855;28;20090;-64
2023/09/19 03:45:05;;;;;;;0.85;0.68;;;14.60;78.10;;;;;;4969016;28;20428;-64
2023/09/19 03:47:31;;;;;;;0.00;0.00;;;14.60;78.60;;;;;;4969500;28;20054;-64
2023/09/19 03:49:56;;;;;;;0.38;0.38;;;14.60;79.00;;;;;;4966766;28;20045;-64
2023/09/19 03:52:22;;;;;;;0.00;0.00;;;14.60;78.90;;;;;;4970033;28;20046;-64
2023/09/19 03:54:47;;;;;;;0.00;0.00;;;14.60;78.70;;;;;;4969078;28;20047;-64
2023/09/19 03:57:15;;;;;;;0.00;0.00;;;14.60;78.90;;;;;;4969526;28;20043;-64
2023/09/19 03:59:42;;;;;;;0.00;0.00;;;14.60;78.90;;;;;;4965980;28;20039;-64
2023/09/19 04:02:12;;;;;;;0.55;0.52;;;14.60;79.00;;;;;;4966462;28;20047;-64
2023/09/19 04:04:37;;;;;;;0.00;0.00;;;14.60;79.10;;;;;;4968690;28;20066;-64
2023/09/19 04:07:03;;;;;;;0.00;0.00;;;14.60;79.20;;;;;;4968928;28;20042;-64
2023/09/19 04:09:29;;;;;;;0.00;0.00;;;14.60;79.20;;;;;;4968724;28;20042;-64
2023/09/19 04:11:54;;;;;;;0.00;0.00;;;14.60;79.30;;;;;;4967699;28;20459;-64
2023/09/19 04:14:20;;;;;;;0.00;0.00;;;14.60;79.60;;;;;;4969595;28;20488;-64
2023/09/19 04:16:45;;;;;;;0.00;0.00;;;14.60;79.60;;;;;;4968847;28;20053;-64
2023/09/19 04:19:11;;;;;;;0.00;0.00;;;14.70;79.80;;;;;;4969761;28;20054;-64
2023/09/19 04:21:36;;;;;;;0.10;0.10;;;14.60;79.90;;;;;;4968635;28;20130;-64
2023/09/19 04:24:02;;;;;;;0.00;0.00;;;14.70;79.90;;;;;;4969635;28;20042;-65
2023/09/19 04:26:28;;;;;;;0.00;0.00;;;14.60;79.90;;;;;;4968665;28;20450;-64
2023/09/19 04:28:56;;;;;;;0.00;0.00;;;14.60;80.10;;;;;;4969059;28;20133;-64
2023/09/19 04:31:22;;;;;;;0.00;0.00;;;14.70;79.80;;;;;;4966483;28;20047;-64
2023/09/19 04:33:47;;;;;;;0.00;0.00;;;14.60;79.80;;;;;;4967551;28;20043;-64
2023/09/19 04:36:13;;;;;;;0.00;0.00;;;14.60;79.90;;;;;;4969684;28;20571;-64
2023/09/19 04:38:39;;;;;;;0.00;0.00;;;14.70;79.30;;;;;;4968389;28;20053;-64
2023/09/19 04:41:05;;;;;;;5.13;1.52;;;14.70;79.40;;;;;;4970337;28;20118;-64
2023/09/19 04:43:30;;;;;;;0.00;0.00;;;14.70;79.50;;;;;;4973554;28;20563;-64
2023/09/19 04:45:56;;;;;;;0.32;0.32;;;14.80;79.40;;;;;;4973080;28;20145;-65
2023/09/19 04:48:25;;;;;;;0.00;0.00;;;14.70;78.90;;;;;;4972495;28;20081;-64
2023/09/19 04:50:51;;;;;;;0.00;0.00;;;14.70;78.90;;;;;;4971701;28;20051;-64
2023/09/19 04:53:20;;;;;;;0.00;0.00;;;14.70;78.20;;;;;;4971960;28;20049;-65
2023/09/19 04:55:52;;;;;;;0.00;0.00;;;14.80;78.50;;;;;;4972790;28;20051;-64
2023/09/19 04:58:20;;;;;;;0.00;0.00;;;14.80;77.80;;;;;;4972192;28;20065;-64
2023/09/19 05:00:45;;;;;;;0.00;0.00;;;14.80;77.70;;;;;;4971550;28;20052;-64
2023/09/19 05:03:11;;;;;;;0.00;0.00;;;14.80;76.90;;;;;;4967068;28;20057;-64
2023/09/19 05:05:38;;;;;;;0.20;0.20;;;14.80;76.70;;;;;;4972126;28;20074;-64
2023/09/19 05:08:05;;;;;;;0.00;0.00;;;14.90;76.30;;;;;;4972539;28;20508;-64
2023/09/19 05:10:32;;;;;;;2.35;1.88;;;14.90;76.40;;;;;;4972261;28;20061;-64
2023/09/19 05:12:57;;;;;;;0.00;0.00;;;14.90;76.00;;;;;;4972598;28;20042;-64
2023/09/19 05:15:23;;;;;;;0.28;0.28;;;14.90;76.20;;;;;;4971614;28;20038;-64
2023/09/19 05:17:54;;;;;;;0.32;0.08;;;14.90;76.40;;;;;;4971946;28;20149;-64
2023/09/19 05:20:29;;;;;;;0.00;0.00;;;14.90;76.00;;;;;;4970801;28;20734;-63
2023/09/19 05:23:07;;;;;;;0.00;0.00;;;14.90;76.40;;;;;;4969468;28;20055;-64
2023/09/19 05:25:37;;;;;;;0.00;0.00;;;14.90;76.30;;;;;;4970803;28;20389;-64
2023/09/19 05:28:05;;;;;;;0.00;0.00;;;14.90;76.30;;;;;;4971905;28;20400;-64
2023/09/19 05:30:31;;;;;;;0.00;0.00;;;14.90;76.30;;;;;;4971296;28;20047;-64
2023/09/19 05:32:58;;;;;;;0.00;0.00;;;14.90;76.40;;;;;;4968348;28;20177;-66
2023/09/19 05:35:24;;;;;;;0.15;0.15;;;15.00;76.70;;;;;;4960857;28;20523;-64
2023/09/19 05:37:51;;;;;;;0.00;0.00;;;15.00;76.70;;;;;;4966976;28;20054;-64
2023/09/19 05:40:19;;;;;;;0.00;0.00;;;15.00;76.90;;;;;;4964464;28;20089;-66
2023/09/19 05:42:46;;;;;;;0.00;0.00;;;14.90;76.70;;;;;;4964949;28;20049;-64
2023/09/19 05:45:12;;;;;;;0.10;0.10;;;15.00;76.50;;;;;;4961483;28;20047;-64
2023/09/19 05:47:45;;;;;;;1.48;1.08;;;15.00;76.40;;;;;;4958860;28;20050;-65
2023/09/19 05:50:11;;;;;;;0.00;0.00;;;15.00;76.30;;;;;;4941762;28;20050;-64
2023/09/19 05:52:37;;;;;;;0.00;0.00;;;15.10;76.10;;;;;;4959685;28;20043;-64
2023/09/19 05:55:07;;;;;;;0.90;0.80;;;15.10;76.10;;;;;;4954278;28;20047;-64
2023/09/19 05:57:39;;;;;;;0.20;0.20;;;15.10;76.30;;;;;;4959896;28;20074;-63
2023/09/19 06:00:10;;;;;;;0.00;0.00;;;15.10;75.80;;;;;;4955361;28;20055;-64
2023/09/19 06:02:36;;;;;;;;;;;15.10;75.70;;;;;;4960710;28;20047;-64
2023/09/19 06:05:02;;;;;;;0.00;0.00;;;15.10;75.90;;;;;;4959863;28;19926;-62
2023/09/19 06:07:36;;;;;;;0.00;0.00;;;15.10;76.20;;;;;;4961666;28;20042;-62
2023/09/19 06:10:08;;;;;;;0.00;0.00;;;15.10;76.40;;;;;;4961517;28;20059;-62
2023/09/19 06:12:44;;;;;;;0.00;0.00;;;15.10;76.50;;;;;;4966592;28;20055;-61
2023/09/19 06:15:15;;;;;;;0.00;0.00;;;15.10;76.70;;;;;;4953578;28;20147;-62
2023/09/19 06:17:51;;;;;;;0.00;0.00;;;15.10;76.60;;;;;;4959693;28;21083;-64
2023/09/19 06:20:17;;;;;;;0.00;0.00;;;15.10;76.70;;;;;;4955894;28;20050;-64
2023/09/19 06:22:44;;;;;;;0.10;0.10;;;15.10;76.70;;;;;;4959327;28;20137;-64
2023/09/19 06:25:11;;;;;;;0.52;0.52;;;15.10;77.00;;;;;;4926774;28;20062;-64
2023/09/19 06:27:42;;;;;;;0.00;0.00;;;15.10;76.70;;;;;;4956749;28;20046;-65
2023/09/19 06:30:09;;;;;;;0.10;0.10;;;15.10;76.30;;;;;;4950606;28;20134;-64
2023/09/19 06:32:35;;;;;;;0.00;0.00;;;15.10;76.60;;;;;;4958614;28;20035;-64
2023/09/19 06:35:01;;;;;;;0.00;0.00;;;15.20;76.60;;;;;;4950815;28;20047;-59
2023/09/19 06:37:30;;;;;;;0.00;0.00;;;15.20;76.10;;;;;;4959172;28;20061;-59
2023/09/19 06:39:56;;;;;;;0.08;0.08;;;15.40;76.60;;;;;;4952829;28;20487;-61
2023/09/19 06:42:22;;;;;;;0.28;0.28;;;15.30;76.40;;;;;;4956625;28;20499;-62
2023/09/19 06:44:49;;;;;;;0.00;0.00;;;15.50;76.60;;;;;;4960503;28;20052;-62
2023/09/19 06:47:16;;;;;;;0.00;0.00;;;15.50;76.10;;;;;;4960285;28;20051;-62
2023/09/19 06:49:45;;;;;;;0.38;0.38;;;15.50;75.70;;;;;;4959294;28;20508;-62
2023/09/19 06:52:11;;;;;;;0.10;0.10;;;15.60;75.70;;;;;;4950230;28;20081;-62
2023/09/19 06:54:37;;;;;;;0.00;0.00;;;15.60;75.60;;;;;;4955555;28;20124;-63
2023/09/19 06:57:03;;;;;;;0.00;0.00;;;15.70;75.80;;;;;;4954790;28;20043;-62
2023/09/19 06:59:29;;;;;;;0.00;0.00;;;15.80;75.10;;;;;;4956332;28;20035;-63
2023/09/19 07:01:54;;;;;;;0.00;0.00;;;15.80;74.40;;;;;;4953468;28;20048;-63
2023/09/19 07:04:20;;;;;;;0.00;0.00;;;15.90;74.50;;;;;;4955612;28;20041;-62
2023/09/19 07:06:51;;;;;;;0.00;0.00;;;16.00;74.40;;;;;;4947993;28;20058;-62
2023/09/19 07:09:19;;;;;;;0.00;0.00;;;16.00;73.90;;;;;;4957870;28;20054;-62
2023/09/19 07:11:45;;;;;;;0.00;0.00;;;16.10;75.70;;;;;;4952993;28;20063;-60
2023/09/19 07:14:13;;;;;;;0.25;0.25;;;16.10;74.50;;;;;;4957122;28;20046;-62
2023/09/19 07:16:40;;;;;;;0.08;0.08;;;16.10;74.20;;;;;;4952146;28;20058;-61
2023/09/19 07:19:06;;;;;;;0.10;0.10;;;16.10;73.20;;;;;;4960137;28;20063;-62
2023/09/19 07:21:35;;;;;;;0.00;0.00;;;16.10;73.10;;;;;;4959593;28;20054;-62
2023/09/19 07:24:03;;;;;;;0.10;0.10;;;16.10;72.80;;;;;;4953385;28;20050;-61
2023/09/19 07:26:28;;;;;;;0.30;0.30;;;16.00;73.40;;;;;;4952399;28;20050;-62
2023/09/19 07:28:54;;;;;;;0.00;0.00;;;16.00;73.60;;;;;;4959825;28;20039;-63
2023/09/19 07:31:22;;;;;;;0.00;0.00;;;16.10;73.90;;;;;;4958569;28;20035;-62
2023/09/19 07:33:48;;;;;;;0.00;0.00;;;16.10;74.00;;;;;;4956741;28;20496;-62
2023/09/19 07:36:14;;;;;;;0.10;0.10;;;16.10;74.00;;;;;;4951632;28;20181;-62
2023/09/19 07:38:40;;;;;;;0.45;0.45;;;16.20;73.60;;;;;;4959391;28;20090;-61
2023/09/19 07:41:08;;;;;;;0.00;0.00;;;16.30;74.00;;;;;;4960437;28;20052;-62
2023/09/19 07:43:35;;;;;;;0.00;0.00;;;16.30;74.00;;;;;;4959060;28;20048;-62
2023/09/19 07:46:06;;;;;;;0.00;0.00;;;16.40;74.10;;;;;;4958587;28;20150;-61
2023/09/19 07:48:33;;;;;;;0.00;0.00;;;16.40;74.10;;;;;;4953106;28;20109;-62
2023/09/19 07:51:03;;;;;;;2.72;1.38;;;16.50;74.10;;;;;;4952429;28;20066;-61
2023/09/19 07:53:30;;;;;;;0.10;0.10;;;16.50;74.20;;;;;;4956391;28;20074;-62
2023/09/19 07:56:03;;;;;;;0.10;0.10;;;16.50;74.50;;;;;;4954144;28;20062;-61
2023/09/19 07:58:29;;;;;;;0.00;0.00;;;16.50;73.50;;;;;;4955487;28;20137;-62
2023/09/19 08:00:55;;;;;;;0.22;0.22;;;16.60;74.00;;;;;;4944864;28;20039;-62
2023/09/19 08:03:20;;;;;;;0.00;0.00;;;16.60;74.40;;;;;;4958900;28;20133;-62
2023/09/19 08:05:46;;;;;;;0.10;0.10;;;16.70;75.10;;;;;;4953168;28;20150;-62
2023/09/19 08:08:14;;;;;;;0.00;0.00;;;16.80;75.40;;;;;;4938951;28;20058;-62
2023/09/19 08:10:42;;;;;;;0.00;0.00;;;16.80;75.10;;;;;;4951603;28;20054;-62
2023/09/19 08:13:13;;;;;;;0.00;0.00;;;16.80;74.80;;;;;;4937505;28;20063;-62
2023/09/19 08:15:43;;;;;;;0.00;0.00;;;16.90;74.80;;;;;;4963139;28;20057;-62
2023/09/19 08:18:12;;;;;;;1.05;0.77;;;17.00;74.30;;;;;;4970497;28;20089;-61
2023/09/19 08:20:38;;;;;;;0.00;0.00;;;17.00;74.80;;;;;;4963206;28;20042;-62
2023/09/19 08:23:04;;;;;;;0.00;0.00;;;17.00;74.60;;;;;;4963102;28;20047;-62
2023/09/19 08:25:29;;;;;;;0.00;0.00;;;17.00;74.00;;;;;;4951351;28;20450;-63
2023/09/19 08:28:01;;;;;;;0.00;0.00;;;17.00;74.20;;;;;;4958503;28;20049;-67
2023/09/19 08:30:27;;;;;;;0.47;0.43;;;17.00;74.40;;;;;;4957938;28;20043;-66
2023/09/19 08:32:59;;;;;;;1.27;1.17;;;17.10;74.50;;;;;;4929128;28;20090;-63
2023/09/19 08:35:26;;;;;;;0.20;0.20;;;17.00;74.30;;;;;;4957825;28;20509;-62
2023/09/19 08:37:52;;;;;;;7.32;0.70;;;17.10;74.70;;;;;;4932215;28;20841;-62
2023/09/19 08:40:18;;;;;;;0.00;0.00;;;17.10;74.50;;;;;;4957862;28;20067;-62
2023/09/19 08:42:51;;;;;;;0.00;0.00;;;17.10;72.70;;;;;;4913082;28;20831;-62
2023/09/19 08:45:17;;;;;;;0.00;0.00;;;17.20;71.60;;;;;;4960114;28;20062;-62
2023/09/19 08:47:57;;;;;;;0.00;0.00;;;17.20;70.20;;;;;;4923127;28;20555;-62
2023/09/19 08:50:28;;;;;;;1.65;1.55;;;17.20;71.40;;;;;;4954777;28;20047;-62
2023/09/19 08:52:56;;;;;;;0.00;0.00;;;17.20;70.60;;;;;;4900734;28;20213;-61
2023/09/19 08:55:28;;;;;;;0.20;0.20;;;17.20;70.40;;;;;;4954600;28;20073;-61
2023/09/19 08:58:00;;;;;;;3.83;1.67;;;17.30;69.90;;;;;;4903339;28;20046;-62
2023/09/19 09:00:28;;;;;;;0.00;0.00;;;17.30;70.60;;;;;;4962648;28;20041;-62
2023/09/19 09:02:55;;;;;;;0.00;0.00;;;17.30;71.10;;;;;;4927617;28;20055;-62
2023/09/19 09:05:23;;;;;;;0.00;0.00;;;17.40;71.70;;;;;;4959198;28;20114;-62
2023/09/19 09:07:52;;;;;;;0.00;0.00;;;17.40;69.50;;;;;;4936647;28;20082;-62
2023/09/19 09:10:24;;;;;;;5.07;1.27;;;17.50;68.60;;;;;;4958171;28;20100;-62
2023/09/19 09:12:56;;;;;;;0.00;0.00;;;17.60;68.00;;;;;;4939343;28;20150;-62
2023/09/19 09:15:23;;;;;;;0.00;0.00;;;17.50;68.10;;;;;;4957741;28;20050;-61
2023/09/19 09:17:55;;;;;;;2.72;1.25;;;17.50;67.90;;;;;;4935432;28;20067;-62
2023/09/19 09:20:21;;;;;;;0.08;0.08;;;17.50;69.50;;;;;;4951325;28;20413;-62
2023/09/19 09:22:54;;;;;;;0.10;0.10;;;17.60;70.00;;;;;;4948071;28;20055;-62
2023/09/19 09:25:24;;;;;;;0.00;0.00;;;17.70;69.60;;;;;;4940755;28;20050;-63
2023/09/19 09:28:01;;;;;;;0.00;0.00;;;17.70;70.90;;;;;;4948993;28;20051;-62
2023/09/19 09:30:34;;;;;;;0.00;0.00;;;17.80;70.20;;;;;;4941848;28;20154;-62
2023/09/19 09:33:11;;;;;;;0.00;0.00;;;17.80;69.60;;;;;;4938974;28;20047;-62
2023/09/19 09:35:46;;;;;;;0.68;0.68;;;17.90;69.90;;;;;;4948648;28;20106;-63
2023/09/19 09:38:13;;;;;;;0.08;0.08;;;17.90;69.10;;;;;;4948251;28;20058;-62
2023/09/19 09:40:53;;;;;;;0.65;0.22;;;17.90;69.40;;;;;;4947611;28;20134;-62
2023/09/19 09:43:36;;;;;;;0.10;0.10;;;17.90;68.00;;;;;;4937464;28;20038;-62
2023/09/19 09:49:26;;;;;;;0.00;0.00;;;17.90;69.30;;;;;;4907625;28;20077;-63
2023/09/19 09:52:05;;;;;;;0.32;0.32;;;17.90;70.00;;;;;;4958422;28;20051;-62
2023/09/19 09:54:36;;;;;;;2.38;1.00;;;17.90;70.30;;;;;;4939645;28;20054;-62
2023/09/19 09:57:25;;;;;;;0.00;0.00;;;17.90;72.90;;;;;;4955764;28;20070;-62
2023/09/19 09:59:58;;;;;;;23.00;0.80;;;17.90;74.20;;;;;;4942727;28;20051;-62
2023/09/19 10:02:40;;;;;;;0.03;0.03;;;17.90;74.20;;;;;;4949308;28;20039;-62
2023/09/19 10:05:40;;;;;;;;;;;17.80;75.30;;;;;;4958553;28;20098;-62
2023/09/19 10:08:13;;;;;;;0.73;0.65;;;17.70;75.40;;;;;;4964803;28;19922;-63
2023/09/19 10:13:18;;;;;;;0.35;0.30;;;17.70;75.70;;;;;;4934648;28;20080;-62
2023/09/19 10:15:50;;;;;;;9.32;0.65;;;17.90;75.40;;;;;;4952923;28;20130;-62
2023/09/19 10:18:23;;;;;;;0.15;0.15;;;18.00;75.60;;;;;;4936956;28;20058;-62
2023/09/19 10:20:49;;;;;;;0.08;0.08;;;18.00;75.80;;;;;;4933730;28;20142;-63
2023/09/19 10:23:22;;;;;;;0.20;0.20;;;18.00;76.40;;;;;;4954934;28;20039;-62
2023/09/19 10:25:48;;;;;;;0.00;0.00;;;18.10;76.00;;;;;;4929314;28;20086;-62
2023/09/19 10:28:16;;;;;;;0.05;0.05;;;18.10;76.10;;;;;;4951315;28;20039;-62
2023/09/19 10:30:44;;;;;;;0.00;0.00;;;18.10;75.90;;;;;;4937385;28;20046;-62
2023/09/19 10:33:14;;;;;;;0.00;0.00;;;18.10;75.70;;;;;;4952853;28;20670;-63
2023/09/19 10:35:46;;;;;;;0.20;0.20;;;18.10;75.50;;;;;;4936573;28;20244;-62
2023/09/19 10:38:14;;;;;;;0.00;0.00;;;18.00;75.50;;;;;;4956887;28;20058;-62
2023/09/19 10:40:43;;;;;;;0.00;0.00;;;18.00;76.10;;;;;;4931561;28;20133;-62
2023/09/19 10:43:17;;;;;;;0.20;0.20;;;17.90;76.50;;;;;;4951124;28;20129;-62
2023/09/19 10:45:44;;;;;;;0.00;0.00;;;17.90;76.50;;;;;;4938805;28;20047;-65
2023/09/19 10:48:12;;;;;;;0.00;0.00;;;17.80;76.40;;;;;;4950766;28;20071;-62
2023/09/19 10:51:04;;;;;;;0.00;0.00;;;17.80;76.90;;;;;;4929263;28;20072;-63
2023/09/19 10:53:51;;;;;;;0.00;0.00;;;17.80;77.20;;;;;;4936877;28;20115;-64
2023/09/19 10:56:23;;;;;;;0.00;0.00;;;17.80;77.50;;;;;;4942889;28;20063;-63
2023/09/19 10:58:49;;;;;;;0.00;0.00;;;17.80;77.30;;;;;;4950940;28;20070;-63
2023/09/19 11:01:15;;;;;;;0.03;0.03;;;17.70;77.70;;;;;;4917468;28;20070;-64
2023/09/19 11:03:44;;;;;;;0.32;0.32;;;17.80;77.40;;;;;;4958989;28;20046;-63
2023/09/19 11:06:15;;;;;;;0.00;0.00;;;17.90;77.40;;;;;;4948202;28;20094;-64
2023/09/19 11:08:57;;;;;;;0.00;0.00;;;17.80;77.70;;;;;;4945420;28;20717;-63
2023/09/19 11:11:39;;;;;;;0.00;0.00;;;17.90;77.90;;;;;;4946340;28;20063;-64
2023/09/19 11:14:23;;;;;;;0.00;0.00;;;17.90;77.60;;;;;;4958744;28;20146;-63
2023/09/19 11:17:11;;;;;;;2.97;2.03;;;17.90;77.40;;;;;;4968954;28;20706;-64
2023/09/19 11:20:24;;;;;;;0.00;0.00;;;17.90;77.60;;;;;;4969749;28;20058;-64
2023/09/19 11:22:54;;;;;;;0.00;0.00;;;17.90;77.70;;;;;;4959795;28;20154;-64
2023/09/19 11:25:32;;;;;;;0.80;0.80;;;18.00;77.80;;;;;;4932478;28;20914;-64
2023/09/19 11:28:14;;;;;;;0.40;0.40;;;18.10;77.60;;;;;;4960277;28;20081;-64
2023/09/19 11:30:50;;;;;;;2.08;0.30;;;18.10;76.70;;;;;;4927463;28;20350;-63
2023/09/19 11:33:38;;;;;;;0.00;0.00;;;18.10;76.90;;;;;;4958936;28;20050;-63
2023/09/19 11:36:04;;;;;;;0.00;0.00;;;18.10;77.00;;;;;;4905214;28;20881;-63
2023/09/19 11:38:43;;;;;;;0.00;0.00;;;18.00;77.30;;;;;;4966401;28;20043;-63
2023/09/19 11:41:39;;;;;;;0.00;0.00;;;18.10;77.20;;;;;;4925106;28;20166;-64
2023/09/19 11:44:10;;;;;;;0.25;0.25;;;18.00;77.10;;;;;;4947136;28;20046;-64
2023/09/19 11:46:51;;;;;;;0.00;0.00;;;17.80;77.70;;;;;;4907858;28;20055;-63
2023/09/19 11:49:21;;;;;;;0.10;0.10;;;17.60;79.40;;;;;;4954254;28;20078;-63
2023/09/19 11:51:49;;;;;;;2.40;1.20;;;17.50;80.50;;;;;;4929417;28;20078;-63
2023/09/19 11:54:18;;;;;;;0.52;0.52;;;17.40;81.40;;;;;;4947247;28;20196;-63
2023/09/19 11:56:45;;;;;;;0.03;0.03;;;17.30;82.10;;;;;;4915412;28;20184;-63
2023/09/19 11:59:11;;;;;;;0.00;0.00;;;17.20;82.50;;;;;;4964523;28;20039;-64
2023/09/19 12:01:50;;;;;;;0.00;0.00;;;17.00;84.00;;;;;;4957422;28;20542;-64
2023/09/19 12:04:18;;;;;;;0.00;0.00;;;16.90;84.00;;;;;;4945027;28;20051;-64
2023/09/19 12:06:56;;;;;;;0.00;0.00;;;16.90;84.60;;;;;;4930851;28;20070;-63
2023/09/19 12:09:22;;;;;;;0.20;0.20;;;16.80;84.90;;;;;;4947000;28;20046;-63
2023/09/19 12:11:49;;;;;;;0.00;0.00;;;16.80;85.80;;;;;;4938601;28;20051;-62
2023/09/19 12:14:26;;;;;;;0.00;0.00;;;16.90;86.60;;;;;;4957364;28;20043;-63
2023/09/19 12:16:55;;;;;;;0.00;0.00;;;16.90;86.50;;;;;;4922239;28;20054;-62
2023/09/19 12:19:23;;;;;;;0.10;0.10;;;17.10;86.10;;;;;;4956620;28;20043;-63
2023/09/19 12:21:57;;;;;;;0.10;0.10;;;17.10;85.40;;;;;;4926274;28;20834;-64
2023/09/19 12:24:29;;;;;;;0.13;0.13;;;17.20;84.60;;;;;;4961866;28;20178;-64
2023/09/19 12:27:01;;;;;;;0.05;0.05;;;17.30;84.00;;;;;;4900434;28;21123;-64
2023/09/19 12:29:27;;;;;;;0.00;0.00;;;17.40;83.20;;;;;;4968319;28;20686;-64
2023/09/19 12:31:58;;;;;;;0.00;0.00;;;17.50;82.60;;;;;;4931144;28;20059;-64
2023/09/19 12:34:27;;;;;;;0.00;0.00;;;17.50;82.30;;;;;;4963639;28;21072;-64
2023/09/19 12:37:12;;;;;;;0.10;0.10;;;17.60;81.70;;;;;;4922003;28;20042;-64
2023/09/19 12:39:40;;;;;;;2.28;0.45;;;17.60;81.70;;;;;;4951833;28;20130;-63
2023/09/19 12:42:10;;;;;;;0.00;0.00;;;17.60;81.40;;;;;;4918446;28;20045;-65
2023/09/19 12:44:41;;;;;;;0.00;0.00;;;17.70;81.20;;;;;;4955090;28;20839;-65
2023/09/19 12:47:24;;;;;;;0.00;0.00;;;17.60;81.40;;;;;;4929296;28;20360;-63
2023/09/19 12:50:13;;;;;;;0.05;0.05;;;17.60;81.70;;;;;;4953851;28;20400;-63
2023/09/19 12:52:48;;;;;;;0.00;0.00;;;17.60;81.90;;;;;;4937712;28;20062;-62
2023/09/19 12:55:28;;;;;;;0.00;0.00;;;17.60;82.10;;;;;;4955643;28;20275;-63
2023/09/19 12:58:06;;;;;;;0.00;0.00;;;17.60;82.40;;;;;;4892518;28;20628;-63
2023/09/19 13:00:41;;;;;;;0.00;0.00;;;17.60;83.00;;;;;;4952238;28;20045;-63
2023/09/19 13:03:21;;;;;;;0.00;0.00;;;17.70;83.30;;;;;;4937899;28;20172;-62
2023/09/19 13:05:51;;;;;;;0.00;0.00;;;17.80;83.30;;;;;;4965887;28;20042;-63
2023/09/19 13:08:20;;;;;;;0.13;0.13;;;17.70;83.80;;;;;;4971125;28;20567;-63
2023/09/19 13:11:12;;;;;;;0.00;0.00;;;17.70;83.50;;;;;;4962022;28;20162;-64